createdAt,value
2023-01-11T00:00:03.792Z,83.11
2023-01-11T00:01:03.802Z,83.32
2023-01-11T00:02:03.815Z,83.32
2023-01-11T00:03:03.780Z,83.17
2023-01-11T00:04:03.741Z,83.28
2023-01-11T00:05:03.775Z,83.38
2023-01-11T00:06:03.729Z,83.69
2023-01-11T00:07:03.744Z,83.38
2023-01-11T00:08:03.694Z,82.97
2023-01-11T00:09:03.699Z,83.28
2023-01-11T00:10:03.682Z,83.28
2023-01-11T00:11:03.677Z,83.69
2023-01-11T00:12:03.646Z,83.80
2023-01-11T00:13:03.699Z,84.00
2023-01-11T00:14:03.644Z,83.69
2023-01-11T00:15:03.635Z,83.69
2023-01-11T00:16:03.662Z,83.90
2023-01-11T00:17:03.621Z,83.80
2023-01-11T00:18:03.604Z,83.48
2023-01-11T00:19:03.591Z,83.38
2023-01-11T00:20:03.602Z,83.80
2023-01-11T00:21:03.595Z,83.28
2023-01-11T00:22:03.560Z,83.17
2023-01-11T00:23:03.558Z,83.69
2023-01-11T00:24:03.525Z,83.28
2023-01-11T00:25:03.550Z,83.17
2023-01-11T00:26:03.524Z,82.97
2023-01-11T00:27:03.507Z,83.28
2023-01-11T00:28:03.501Z,83.59
2023-01-11T00:29:03.502Z,83.07
2023-01-11T00:30:03.460Z,83.07
2023-01-11T00:31:03.528Z,83.17
2023-01-11T00:32:03.447Z,83.17
2023-01-11T00:33:03.458Z,83.17
2023-01-11T00:34:03.425Z,83.38
2023-01-11T00:35:03.508Z,83.69
2023-01-11T00:36:03.397Z,83.90
2023-01-11T00:37:03.417Z,83.90
2023-01-11T00:38:03.381Z,83.80
2023-01-11T00:39:03.399Z,83.80
2023-01-11T00:40:03.355Z,84.11
2023-01-11T00:41:03.373Z,84.11
2023-01-11T00:42:03.333Z,84.21
2023-01-11T00:43:03.360Z,84.21
2023-01-11T00:44:03.313Z,84.73
2023-01-11T00:45:03.335Z,84.94
2023-01-11T00:46:03.339Z,85.25
2023-01-11T00:47:03.299Z,85.04
2023-01-11T00:48:03.271Z,85.14
2023-01-11T00:49:03.299Z,85.56
2023-01-11T00:50:03.273Z,85.66
2023-01-11T00:51:03.251Z,85.77
2023-01-11T00:52:03.225Z,86.18
2023-01-11T00:53:03.239Z,86.08
2023-01-11T00:54:03.207Z,86.22
2023-01-11T00:55:03.226Z,86.33
2023-01-11T00:56:03.200Z,86.33
2023-01-11T00:57:03.223Z,86.54
2023-01-11T00:58:03.171Z,86.85
2023-01-11T00:59:03.184Z,86.95
2023-01-11T01:00:03.146Z,87.05
2023-01-11T01:01:03.218Z,87.37
2023-01-11T01:02:03.130Z,87.57
2023-01-11T01:03:03.141Z,87.78
2023-01-11T01:04:03.115Z,88.20
2023-01-11T01:05:03.118Z,88.92
2023-01-11T01:06:03.115Z,89.23
2023-01-11T01:07:03.083Z,89.75
2023-01-11T01:08:03.052Z,90.89
2023-01-11T01:09:03.066Z,91.52
2023-01-11T01:10:03.037Z,92.24
2023-01-11T01:11:03.088Z,92.45
2023-01-11T01:12:03.018Z,92.86
2023-01-11T01:13:03.064Z,93.22
2023-01-11T01:14:02.992Z,93.95
2023-01-11T01:15:03.021Z,95.09
2023-01-11T01:16:03.030Z,94.98
2023-01-11T01:17:02.990Z,94.78
2023-01-11T01:18:02.957Z,95.40
2023-01-11T01:19:02.967Z,95.61
2023-01-11T01:20:02.927Z,96.12
2023-01-11T01:21:02.957Z,96.75
2023-01-11T01:22:02.908Z,97.06
2023-01-11T01:23:02.918Z,97.41
2023-01-11T01:24:02.889Z,97.31
2023-01-11T01:25:02.906Z,97.72
2023-01-11T01:26:02.867Z,98.03
2023-01-11T01:27:02.889Z,98.35
2023-01-11T01:28:02.855Z,98.24
2023-01-11T01:29:02.873Z,98.14
2023-01-11T01:30:02.827Z,97.62
2023-01-11T01:31:02.918Z,97.93
2023-01-11T01:32:02.820Z,98.24
2023-01-11T01:33:02.812Z,98.14
2023-01-11T01:34:02.782Z,98.14
2023-01-11T01:35:02.805Z,98.24
2023-01-11T01:36:02.768Z,98.45
2023-01-11T01:37:02.791Z,98.35
2023-01-11T01:38:02.743Z,98.66
2023-01-11T01:39:02.750Z,98.24
2023-01-11T01:40:02.720Z,98.03
2023-01-11T01:41:02.730Z,98.24
2023-01-11T01:42:02.715Z,98.20
2023-01-11T01:43:02.700Z,98.10
2023-01-11T01:44:02.680Z,98.30
2023-01-11T01:45:02.680Z,98.41
2023-01-11T01:46:02.689Z,98.20
2023-01-11T01:47:02.669Z,97.99
2023-01-11T01:48:02.653Z,97.89
2023-01-11T01:49:02.654Z,97.89
2023-01-11T01:50:02.626Z,97.78
2023-01-11T01:51:02.641Z,97.99
2023-01-11T01:52:02.595Z,97.89
2023-01-11T01:53:02.650Z,97.58
2023-01-11T01:54:02.568Z,97.58
2023-01-11T01:55:02.599Z,97.58
2023-01-11T01:56:02.571Z,97.58
2023-01-11T01:57:02.592Z,97.58
2023-01-11T01:58:02.525Z,97.47
2023-01-11T01:59:02.543Z,97.68
2023-01-11T02:00:02.541Z,97.47
2023-01-11T02:01:02.521Z,97.58
2023-01-11T02:02:02.590Z,97.37
2023-01-11T02:03:02.592Z,97.37
2023-01-11T02:04:02.468Z,97.27
2023-01-11T02:05:02.475Z,97.37
2023-01-11T02:06:02.457Z,97.37
2023-01-11T02:07:02.468Z,97.47
2023-01-11T02:08:02.424Z,97.37
2023-01-11T02:09:02.441Z,97.37
2023-01-11T02:10:02.407Z,97.22
2023-01-11T02:11:02.417Z,97.33
2023-01-11T02:12:02.384Z,97.22
2023-01-11T02:13:02.399Z,96.91
2023-01-11T02:14:02.394Z,96.91
2023-01-11T02:15:02.370Z,96.91
2023-01-11T02:16:02.410Z,96.91
2023-01-11T02:17:02.347Z,96.95
2023-01-11T02:18:02.331Z,97.12
2023-01-11T02:19:02.346Z,97.33
2023-01-11T02:20:02.321Z,96.70
2023-01-11T02:21:02.328Z,97.02
2023-01-11T02:22:02.285Z,97.22
2023-01-11T02:23:02.278Z,96.91
2023-01-11T02:24:02.284Z,97.02
2023-01-11T02:25:02.268Z,97.53
2023-01-11T02:26:02.248Z,97.02
2023-01-11T02:27:02.256Z,97.02
2023-01-11T02:28:02.217Z,97.12
2023-01-11T02:29:02.237Z,97.02
2023-01-11T02:30:02.210Z,96.91
2023-01-11T02:31:02.285Z,96.91
2023-01-11T02:32:02.188Z,96.70
2023-01-11T02:33:02.187Z,96.81
2023-01-11T02:34:02.173Z,96.81
2023-01-11T02:35:02.154Z,96.70
2023-01-11T02:36:02.130Z,96.70
2023-01-11T02:37:02.134Z,96.70
2023-01-11T02:38:02.110Z,96.70
2023-01-11T02:39:02.134Z,96.70
2023-01-11T02:40:02.095Z,96.60
2023-01-11T02:41:02.093Z,96.50
2023-01-11T02:42:02.075Z,96.70
2023-01-11T02:43:02.062Z,96.60
2023-01-11T02:44:02.065Z,96.70
2023-01-11T02:45:02.051Z,97.02
2023-01-11T02:46:02.053Z,96.81
2023-01-11T02:47:02.021Z,97.22
2023-01-11T02:48:02.019Z,97.33
2023-01-11T02:49:01.994Z,97.22
2023-01-11T02:50:02.001Z,97.02
2023-01-11T02:51:01.993Z,97.22
2023-01-11T02:52:01.993Z,97.33
2023-01-11T02:53:01.952Z,97.22
2023-01-11T02:54:01.982Z,97.12
2023-01-11T02:55:01.926Z,97.22
2023-01-11T02:56:01.958Z,97.43
2023-01-11T02:57:01.907Z,97.43
2023-01-11T02:58:01.938Z,97.43
2023-01-11T02:59:01.898Z,97.33
2023-01-11T03:00:01.889Z,97.33
2023-01-11T03:01:01.872Z,97.47
2023-01-11T03:02:01.897Z,97.47
2023-01-11T03:03:01.928Z,97.53
2023-01-11T03:04:01.879Z,97.53
2023-01-11T03:05:01.825Z,97.53
2023-01-11T03:06:01.831Z,97.53
2023-01-11T03:07:01.842Z,97.64
2023-01-11T03:08:01.834Z,97.43
2023-01-11T03:09:01.781Z,97.43
2023-01-11T03:10:01.814Z,97.33
2023-01-11T03:11:01.764Z,97.22
2023-01-11T03:12:01.780Z,97.22
2023-01-11T03:13:01.748Z,97.02
2023-01-11T03:14:01.766Z,96.91
2023-01-11T03:15:01.721Z,96.70
2023-01-11T03:16:01.793Z,96.70
2023-01-11T03:17:01.723Z,96.91
2023-01-11T03:18:01.724Z,96.60
2023-01-11T03:19:01.689Z,96.39
2023-01-11T03:20:01.731Z,96.29
2023-01-11T03:21:01.699Z,96.39
2023-01-11T03:22:01.696Z,96.50
2023-01-11T03:23:01.640Z,96.70
2023-01-11T03:24:01.651Z,96.45
2023-01-11T03:25:01.613Z,96.29
2023-01-11T03:26:01.642Z,96.34
2023-01-11T03:27:01.599Z,96.24
2023-01-11T03:28:01.598Z,96.14
2023-01-11T03:29:01.577Z,96.14
2023-01-11T03:30:01.596Z,96.03
2023-01-11T03:31:01.602Z,95.93
2023-01-11T03:32:01.575Z,96.14
2023-01-11T03:33:01.541Z,96.14
2023-01-11T03:34:01.542Z,95.93
2023-01-11T03:35:01.510Z,95.93
2023-01-11T03:36:01.538Z,95.93
2023-01-11T03:37:01.502Z,95.93
2023-01-11T03:38:01.491Z,95.93
2023-01-11T03:39:01.484Z,95.83
2023-01-11T03:40:01.483Z,95.93
2023-01-11T03:41:01.453Z,96.03
2023-01-11T03:42:01.469Z,96.03
2023-01-11T03:43:01.443Z,95.93
2023-01-11T03:44:01.449Z,95.72
2023-01-11T03:45:01.401Z,95.72
2023-01-11T03:46:01.420Z,95.62
2023-01-11T03:47:01.422Z,95.72
2023-01-11T03:48:01.384Z,95.62
2023-01-11T03:49:01.376Z,95.31
2023-01-11T03:50:01.435Z,95.51
2023-01-11T03:51:01.337Z,95.51
2023-01-11T03:52:01.373Z,95.62
2023-01-11T03:53:01.335Z,95.41
2023-01-11T03:54:01.343Z,95.41
2023-01-11T03:55:01.302Z,95.41
2023-01-11T03:56:01.316Z,95.41
2023-01-11T03:57:01.274Z,95.62
2023-01-11T03:58:01.297Z,95.68
2023-01-11T03:59:01.255Z,95.68
2023-01-11T04:00:01.269Z,95.26
2023-01-11T04:01:01.256Z,95.47
2023-01-11T04:02:01.238Z,95.47
2023-01-11T04:03:01.236Z,95.26
2023-01-11T04:04:01.247Z,94.95
2023-01-11T04:05:01.193Z,94.74
2023-01-11T04:06:01.198Z,94.85
2023-01-11T04:07:01.227Z,94.95
2023-01-11T04:08:01.193Z,95.06
2023-01-11T04:09:01.152Z,94.95
2023-01-11T04:10:01.154Z,95.37
2023-01-11T04:11:01.128Z,95.06
2023-01-11T04:12:01.145Z,94.85
2023-01-11T04:13:01.118Z,94.85
2023-01-11T04:14:01.134Z,94.85
2023-01-11T04:15:01.097Z,94.74
2023-01-11T04:16:01.178Z,94.49
2023-01-11T04:17:01.070Z,94.18
2023-01-11T04:18:01.069Z,94.18
2023-01-11T04:19:01.039Z,93.98
2023-01-11T04:20:01.062Z,94.29
2023-01-11T04:21:01.022Z,94.18
2023-01-11T04:22:01.032Z,94.18
2023-01-11T04:23:01.003Z,94.29
2023-01-11T04:24:01.021Z,94.39
2023-01-11T04:25:00.982Z,94.29
2023-01-11T04:26:00.997Z,94.18
2023-01-11T04:27:00.972Z,94.18
2023-01-11T04:28:00.990Z,93.98
2023-01-11T04:29:00.937Z,94.18
2023-01-11T04:30:00.959Z,94.18
2023-01-11T04:31:00.913Z,94.18
2023-01-11T04:32:00.947Z,94.08
2023-01-11T04:33:00.900Z,94.08
2023-01-11T04:34:00.921Z,93.77
2023-01-11T04:35:00.875Z,93.98
2023-01-11T04:36:00.893Z,93.56
2023-01-11T04:37:00.856Z,93.98
2023-01-11T04:38:00.855Z,93.56
2023-01-11T04:39:00.840Z,93.77
2023-01-11T04:40:00.864Z,93.66
2023-01-11T04:41:00.814Z,93.66
2023-01-11T04:42:00.835Z,93.46
2023-01-11T04:43:00.788Z,93.46
2023-01-11T04:44:00.808Z,93.46
2023-01-11T04:45:00.772Z,93.56
2023-01-11T04:46:00.838Z,93.77
2023-01-11T04:47:00.745Z,93.66
2023-01-11T04:48:00.749Z,93.56
2023-01-11T04:49:00.726Z,93.56
2023-01-11T04:50:00.729Z,93.35
2023-01-11T04:51:00.714Z,93.25
2023-01-11T04:52:00.719Z,92.94
2023-01-11T04:53:00.725Z,92.94
2023-01-11T04:54:00.698Z,93.04
2023-01-11T04:55:00.667Z,93.04
2023-01-11T04:56:00.680Z,93.04
2023-01-11T04:57:00.640Z,92.94
2023-01-11T04:58:00.656Z,93.04
2023-01-11T04:59:00.625Z,92.94
2023-01-11T05:00:00.631Z,92.74
2023-01-11T05:01:00.639Z,92.84
2023-01-11T05:02:00.627Z,92.63
2023-01-11T05:03:00.576Z,92.53
2023-01-11T05:04:00.644Z,92.74
2023-01-11T05:05:00.554Z,92.43
2023-01-11T05:06:00.602Z,92.53
2023-01-11T05:07:00.607Z,92.32
2023-01-11T05:08:00.539Z,92.32
2023-01-11T05:09:00.512Z,92.63
2023-01-11T05:10:00.531Z,92.38
2023-01-11T05:11:00.503Z,92.53
2023-01-11T05:12:00.519Z,92.69
2023-01-11T05:13:00.471Z,92.69
2023-01-11T05:14:00.479Z,92.69
2023-01-11T05:15:00.473Z,92.69
2023-01-11T05:16:00.482Z,92.49
2023-01-11T05:17:00.445Z,92.28
2023-01-11T05:18:00.458Z,92.49
2023-01-11T05:19:00.410Z,92.69
2023-01-11T05:20:00.429Z,92.69
2023-01-11T05:21:00.386Z,92.49
2023-01-11T05:22:00.404Z,92.90
2023-01-11T05:23:00.366Z,92.69
2023-01-11T05:24:00.393Z,92.80
2023-01-11T05:25:00.356Z,92.90
2023-01-11T05:26:00.347Z,92.69
2023-01-11T05:27:00.321Z,93.00
2023-01-11T05:28:00.325Z,93.10
2023-01-11T05:29:00.301Z,93.41
2023-01-11T05:30:00.313Z,93.52
2023-01-11T05:31:00.288Z,93.10
2023-01-11T05:32:00.363Z,93.41
2023-01-11T05:33:00.259Z,93.73
2023-01-11T05:34:00.269Z,93.73
2023-01-11T05:35:00.257Z,93.83
2023-01-11T05:36:00.259Z,93.73
2023-01-11T05:37:00.215Z,93.62
2023-01-11T05:38:00.244Z,93.62
2023-01-11T05:39:00.193Z,93.52
2023-01-11T05:40:00.198Z,93.00
2023-01-11T05:41:00.171Z,93.10
2023-01-11T05:42:00.196Z,93.31
2023-01-11T05:43:00.156Z,93.21
2023-01-11T05:44:00.166Z,93.21
2023-01-11T05:45:00.183Z,93.10
2023-01-11T05:46:00.242Z,93.21
2023-01-11T05:47:00.116Z,93.10
2023-01-11T05:48:00.137Z,93.06
2023-01-11T05:49:00.126Z,92.59
2023-01-11T05:50:00.108Z,92.76
2023-01-11T05:51:01.526Z,92.76
2023-01-11T05:52:00.087Z,92.76
2023-01-11T05:53:00.047Z,92.44
2023-01-11T05:54:00.070Z,92.65
2023-01-11T05:55:00.033Z,92.24
2023-01-11T05:56:00.029Z,92.24
2023-01-11T05:56:59.997Z,92.55
2023-01-11T05:58:00.039Z,92.65
2023-01-11T05:58:59.988Z,92.55
2023-01-11T05:59:59.982Z,92.34
2023-01-11T06:00:59.960Z,92.03
2023-01-11T06:02:00.045Z,92.13
2023-01-11T06:03:00.098Z,92.55
2023-01-11T06:03:59.941Z,92.34
2023-01-11T06:04:59.920Z,92.34
2023-01-11T06:05:59.941Z,92.34
2023-01-11T06:06:59.987Z,91.82
2023-01-11T06:07:59.921Z,91.57
2023-01-11T06:08:59.873Z,91.57
2023-01-11T06:09:59.900Z,91.78
2023-01-11T06:11:00.263Z,91.47
2023-01-11T06:11:59.868Z,91.47
2023-01-11T06:12:59.829Z,91.67
2023-01-11T06:13:59.851Z,91.47
2023-01-11T06:14:59.816Z,91.16
2023-01-11T06:15:59.828Z,91.16
2023-01-11T06:16:59.834Z,91.26
2023-01-11T06:17:59.793Z,91.26
2023-01-11T06:18:59.768Z,91.26
2023-01-11T06:19:59.770Z,91.16
2023-01-11T06:20:59.749Z,91.26
2023-01-11T06:21:59.775Z,91.26
2023-01-11T06:22:59.724Z,91.16
2023-01-11T06:23:59.728Z,91.26
2023-01-11T06:24:59.720Z,91.36
2023-01-11T06:25:59.721Z,91.26
2023-01-11T06:26:59.692Z,91.36
2023-01-11T06:27:59.696Z,91.26
2023-01-11T06:28:59.656Z,90.84
2023-01-11T06:29:59.667Z,90.95
2023-01-11T06:30:59.707Z,90.95
2023-01-11T06:31:59.645Z,91.05
2023-01-11T06:32:59.623Z,91.26
2023-01-11T06:33:59.622Z,91.05
2023-01-11T06:34:59.598Z,91.05
2023-01-11T06:35:59.613Z,90.84
2023-01-11T06:36:59.592Z,91.22
2023-01-11T06:37:59.589Z,91.22
2023-01-11T06:38:59.556Z,91.22
2023-01-11T06:39:59.570Z,91.11
2023-01-11T06:40:59.527Z,91.11
2023-01-11T06:41:59.670Z,91.22
2023-01-11T06:42:59.526Z,90.70
2023-01-11T06:43:59.511Z,90.70
2023-01-11T06:44:59.443Z,90.70
2023-01-11T06:45:59.482Z,90.70
2023-01-11T06:46:59.412Z,91.01
2023-01-11T06:47:59.531Z,90.70
2023-01-11T06:48:59.457Z,90.91
2023-01-11T06:49:59.471Z,91.01
2023-01-11T06:50:59.427Z,91.11
2023-01-11T06:51:59.441Z,91.22
2023-01-11T06:52:59.427Z,90.91
2023-01-11T06:53:59.385Z,91.01
2023-01-11T06:54:59.324Z,91.11
2023-01-11T06:55:59.347Z,90.80
2023-01-11T06:56:59.369Z,91.01
2023-01-11T06:57:59.381Z,91.11
2023-01-11T06:58:59.343Z,91.32
2023-01-11T06:59:59.265Z,91.32
2023-01-11T07:00:59.339Z,91.11
2023-01-11T07:01:59.248Z,91.32
2023-01-11T07:02:59.262Z,91.22
2023-01-11T07:03:59.226Z,91.42
2023-01-11T07:04:59.336Z,91.42
2023-01-11T07:05:59.209Z,91.32
2023-01-11T07:06:59.237Z,91.32
2023-01-11T07:07:59.187Z,91.42
2023-01-11T07:08:59.201Z,91.42
2023-01-11T07:09:59.165Z,91.22
2023-01-11T07:10:59.253Z,91.22
2023-01-11T07:11:59.146Z,91.22
2023-01-11T07:12:59.161Z,91.07
2023-01-11T07:13:59.141Z,90.97
2023-01-11T07:14:59.127Z,91.17
2023-01-11T07:15:59.151Z,91.07
2023-01-11T07:16:59.118Z,90.97
2023-01-11T07:17:59.084Z,91.07
2023-01-11T07:18:59.085Z,91.07
2023-01-11T07:19:59.064Z,90.97
2023-01-11T07:20:59.068Z,90.87
2023-01-11T07:21:59.045Z,90.66
2023-01-11T07:22:59.047Z,90.97
2023-01-11T07:23:59.031Z,90.97
2023-01-11T07:24:59.024Z,90.97
2023-01-11T07:25:59.038Z,90.87
2023-01-11T07:26:59.010Z,90.87
2023-01-11T07:27:58.980Z,90.87
2023-01-11T07:28:58.977Z,90.66
2023-01-11T07:29:58.967Z,90.87
2023-01-11T07:30:59.990Z,90.77
2023-01-11T07:31:58.937Z,90.66
2023-01-11T07:32:58.948Z,90.66
2023-01-11T07:33:58.908Z,90.56
2023-01-11T07:34:58.923Z,90.35
2023-01-11T07:35:58.893Z,90.45
2023-01-11T07:36:58.903Z,90.62
2023-01-11T07:37:58.862Z,90.31
2023-01-11T07:38:58.896Z,90.10
2023-01-11T07:39:58.848Z,89.89
2023-01-11T07:40:58.857Z,89.89
2023-01-11T07:41:58.821Z,89.79
2023-01-11T07:42:58.849Z,89.69
2023-01-11T07:43:58.804Z,89.48
2023-01-11T07:44:58.806Z,89.59
2023-01-11T07:45:58.938Z,89.38
2023-01-11T07:46:58.834Z,89.48
2023-01-11T07:47:58.762Z,89.48
2023-01-11T07:48:58.776Z,89.59
2023-01-11T07:49:58.736Z,89.28
2023-01-11T07:50:58.739Z,89.17
2023-01-11T07:51:58.719Z,88.96
2023-01-11T07:52:58.744Z,88.96
2023-01-11T07:53:58.691Z,88.61
2023-01-11T07:54:58.717Z,88.92
2023-01-11T07:55:58.688Z,88.92
2023-01-11T07:56:58.698Z,88.71
2023-01-11T07:57:58.649Z,89.03
2023-01-11T07:58:58.700Z,88.71
2023-01-11T07:59:58.637Z,88.82
2023-01-11T08:00:58.631Z,88.41
2023-01-11T08:01:58.621Z,88.51
2023-01-11T08:02:58.736Z,88.51
2023-01-11T08:03:58.588Z,88.20
2023-01-11T08:04:58.612Z,88.10
2023-01-11T08:05:58.566Z,87.89
2023-01-11T08:06:58.581Z,88.20
2023-01-11T08:07:58.557Z,87.89
2023-01-11T08:08:58.573Z,87.95
2023-01-11T08:09:58.522Z,87.74
2023-01-11T08:10:58.568Z,87.65
2023-01-11T08:11:58.505Z,87.44
2023-01-11T08:12:58.543Z,87.74
2023-01-11T08:13:58.490Z,87.44
2023-01-11T08:14:58.494Z,87.74
2023-01-11T08:15:58.548Z,87.65
2023-01-11T08:16:58.477Z,87.44
2023-01-11T08:17:58.456Z,87.44
2023-01-11T08:18:58.460Z,87.44
2023-01-11T08:19:58.488Z,87.74
2023-01-11T08:20:58.420Z,87.74
2023-01-11T08:21:58.394Z,87.95
2023-01-11T08:22:58.424Z,88.12
2023-01-11T08:23:58.375Z,87.81
2023-01-11T08:24:58.384Z,88.22
2023-01-11T08:25:58.350Z,88.12
2023-01-11T08:26:58.383Z,88.84
2023-01-11T08:27:58.339Z,88.74
2023-01-11T08:28:58.330Z,88.84
2023-01-11T08:29:58.305Z,88.53
2023-01-11T08:30:58.406Z,88.43
2023-01-11T08:31:58.307Z,88.74
2023-01-11T08:32:58.287Z,88.43
2023-01-11T08:33:58.284Z,87.29
2023-01-11T08:34:58.264Z,88.02
2023-01-11T08:35:58.245Z,87.71
2023-01-11T08:36:58.256Z,88.02
2023-01-11T08:37:58.225Z,87.50
2023-01-11T08:38:58.258Z,87.29
2023-01-11T08:39:58.214Z,87.77
2023-01-11T08:40:58.224Z,87.87
2023-01-11T08:41:58.182Z,86.84
2023-01-11T08:42:58.190Z,86.84
2023-01-11T08:43:58.171Z,86.32
2023-01-11T08:44:58.173Z,86.43
2023-01-11T08:45:58.139Z,86.43
2023-01-11T08:46:58.154Z,86.18
2023-01-11T08:47:58.128Z,86.49
2023-01-11T08:48:58.149Z,85.97
2023-01-11T08:49:58.122Z,85.46
2023-01-11T08:50:58.101Z,85.97
2023-01-11T08:51:58.084Z,85.57
2023-01-11T08:52:58.094Z,85.67
2023-01-11T08:53:58.057Z,85.46
2023-01-11T08:54:58.063Z,85.67
2023-01-11T08:55:58.039Z,85.01
2023-01-11T08:56:58.036Z,84.91
2023-01-11T08:57:58.005Z,84.80
2023-01-11T08:58:58.024Z,84.80
2023-01-11T08:59:57.982Z,84.91
2023-01-11T09:00:57.997Z,85.01
2023-01-11T09:01:58.004Z,84.70
2023-01-11T09:02:58.034Z,84.80
2023-01-11T09:03:57.939Z,85.01
2023-01-11T09:04:57.947Z,85.31
2023-01-11T09:05:57.936Z,85.01
2023-01-11T09:06:57.926Z,84.80
2023-01-11T09:07:57.898Z,85.01
2023-01-11T09:08:57.916Z,84.59
2023-01-11T09:09:57.880Z,84.49
2023-01-11T09:10:57.908Z,84.80
2023-01-11T09:11:57.877Z,84.59
2023-01-11T09:12:57.861Z,84.49
2023-01-11T09:13:57.843Z,84.49
2023-01-11T09:14:57.845Z,84.39
2023-01-11T09:15:57.901Z,84.59
2023-01-11T09:16:57.836Z,84.29
2023-01-11T09:17:57.795Z,84.39
2023-01-11T09:18:57.798Z,83.98
2023-01-11T09:19:57.769Z,84.19
2023-01-11T09:20:57.789Z,84.19
2023-01-11T09:21:57.756Z,83.94
2023-01-11T09:22:57.765Z,83.94
2023-01-11T09:23:57.735Z,83.94
2023-01-11T09:24:57.745Z,83.53
2023-01-11T09:25:57.713Z,83.53
2023-01-11T09:26:57.744Z,83.73
2023-01-11T09:27:57.726Z,83.84
2023-01-11T09:28:57.751Z,83.32
2023-01-11T09:29:57.662Z,83.53
2023-01-11T09:30:57.720Z,83.39
2023-01-11T09:31:57.664Z,83.18
2023-01-11T09:32:57.682Z,82.87
2023-01-11T09:33:57.620Z,83.07
2023-01-11T09:34:57.635Z,83.07
2023-01-11T09:35:57.599Z,82.87
2023-01-11T09:36:57.632Z,83.07
2023-01-11T09:37:57.604Z,82.97
2023-01-11T09:38:57.653Z,82.67
2023-01-11T09:39:57.559Z,82.67
2023-01-11T09:40:57.575Z,82.77
2023-01-11T09:41:57.529Z,82.56
2023-01-11T09:42:57.555Z,82.46
2023-01-11T09:43:57.525Z,82.56
2023-01-11T09:44:57.541Z,82.97
2023-01-11T09:45:57.487Z,82.73
2023-01-11T09:46:57.540Z,82.73
2023-01-11T09:47:57.466Z,82.42
2023-01-11T09:48:57.475Z,82.42
2023-01-11T09:49:57.459Z,82.11
2023-01-11T09:50:57.463Z,82.11
2023-01-11T09:51:59.793Z,82.01
2023-01-11T09:52:57.431Z,82.11
2023-01-11T09:53:57.405Z,81.67
2023-01-11T09:54:57.427Z,81.46
2023-01-11T09:55:57.402Z,81.67
2023-01-11T09:56:57.399Z,81.87
2023-01-11T09:57:57.359Z,81.76
2023-01-11T09:58:57.388Z,81.67
2023-01-11T09:59:57.349Z,81.87
2023-01-11T10:00:59.579Z,81.87
2023-01-11T10:01:57.320Z,82.07
2023-01-11T10:02:57.328Z,81.87
2023-01-11T10:03:57.308Z,82.07
2023-01-11T10:04:57.367Z,82.28
2023-01-11T10:05:57.290Z,82.14
2023-01-11T10:06:57.292Z,81.83
2023-01-11T10:18:23.604Z,81.73
2023-01-11T10:19:05.843Z,81.62
2023-01-11T10:19:37.415Z,81.07
2023-01-11T10:19:52.518Z,80.87
2023-01-11T10:20:52.476Z,80.87
2023-01-11T10:21:52.441Z,80.87
2023-01-11T10:22:52.458Z,80.97
2023-01-11T10:23:52.422Z,80.97
2023-01-11T10:24:52.461Z,80.97
2023-01-11T10:25:52.421Z,80.83
2023-01-11T10:26:52.510Z,80.32
2023-01-11T10:27:52.401Z,80.32
2023-01-11T10:28:52.389Z,80.21
2023-01-11T10:29:52.372Z,80.42
2023-01-11T10:30:52.386Z,80.11
2023-01-11T10:31:52.394Z,80.21
2023-01-11T10:32:52.344Z,79.91
2023-01-11T10:33:52.391Z,79.60
2023-01-11T10:34:52.336Z,79.91
2023-01-11T10:35:52.309Z,80.07
2023-01-11T10:36:52.309Z,79.66
2023-01-11T10:37:52.278Z,79.46
2023-01-11T10:38:52.329Z,79.66
2023-01-11T10:39:52.253Z,79.25
2023-01-11T10:40:52.323Z,79.05
2023-01-11T10:41:52.322Z,79.25
2023-01-11T10:42:52.255Z,79.25
2023-01-11T10:43:52.230Z,79.39
2023-01-11T10:44:52.227Z,79.49
2023-01-11T10:45:52.241Z,79.80
2023-01-11T10:46:52.224Z,79.49
2023-01-11T10:47:52.161Z,79.49
2023-01-11T10:48:52.200Z,80.01
2023-01-11T10:49:52.151Z,79.91
2023-01-11T10:50:52.264Z,79.70
2023-01-11T10:51:52.178Z,79.70
2023-01-11T10:52:52.177Z,79.60
2023-01-11T10:53:52.106Z,79.80
2023-01-11T10:54:52.164Z,79.49
2023-01-11T10:55:52.084Z,79.29
2023-01-11T10:57:03.539Z,79.49
2023-01-11T10:58:01.694Z,79.91
2023-01-11T10:58:52.096Z,80.01
2023-01-11T10:59:52.031Z,80.01
2023-01-11T11:00:52.186Z,79.49
2023-01-11T11:01:52.029Z,79.80
2023-01-11T11:02:52.019Z,79.70
2023-01-11T11:03:52.001Z,79.80
2023-01-11T11:04:51.995Z,80.01
2023-01-11T11:05:51.984Z,79.87
2023-01-11T11:06:51.976Z,80.38
2023-01-11T11:07:51.965Z,80.28
2023-01-11T11:08:51.959Z,80.28
2023-01-11T11:09:51.925Z,79.87
2023-01-11T11:10:51.972Z,80.07
2023-01-11T11:11:51.899Z,80.49
2023-01-11T11:12:51.932Z,80.79
2023-01-11T11:13:51.886Z,81.24
2023-01-11T11:14:51.883Z,81.71
2023-01-11T11:15:53.108Z,83.19
2023-01-11T11:16:51.868Z,83.40
2023-01-11T11:17:51.840Z,84.53
2023-01-11T11:18:51.870Z,85.97
2023-01-11T11:19:51.816Z,85.76
2023-01-11T11:20:51.944Z,86.68
2023-01-11T11:21:51.953Z,87.24
2023-01-11T11:22:51.821Z,88.57
2023-01-11T11:23:51.790Z,88.47
2023-01-11T11:24:51.774Z,88.47
2023-01-11T11:25:51.785Z,90.53
2023-01-11T11:26:51.771Z,92.27
2023-01-11T11:27:51.772Z,91.70
2023-01-11T11:28:51.718Z,90.98
2023-01-11T11:29:51.739Z,91.39
2023-01-11T11:30:51.708Z,91.08
2023-01-11T11:31:51.752Z,93.04
2023-01-11T11:32:51.679Z,92.93
2023-01-11T11:33:51.692Z,93.65
2023-01-11T11:34:51.676Z,93.08
2023-01-11T11:35:51.677Z,93.59
2023-01-11T11:36:51.645Z,94.11
2023-01-11T11:37:51.668Z,93.70
2023-01-11T11:38:51.616Z,94.21
2023-01-11T11:39:51.616Z,94.73
2023-01-11T11:40:51.603Z,94.11
2023-01-11T11:41:51.614Z,94.42
2023-01-11T11:42:51.573Z,93.39
2023-01-11T11:43:51.610Z,94.01
2023-01-11T11:44:51.555Z,95.75
2023-01-11T11:45:51.661Z,95.96
2023-01-11T11:46:51.521Z,96.37
2023-01-11T11:47:51.546Z,96.89
2023-01-11T11:48:51.500Z,97.09
2023-01-11T11:49:51.523Z,96.37
2023-01-11T11:50:51.479Z,95.14
2023-01-11T11:51:51.545Z,95.55
2023-01-11T11:52:51.459Z,95.86
2023-01-11T11:53:51.483Z,96.68
2023-01-11T11:54:51.442Z,97.30
2023-01-11T11:55:51.502Z,97.19
2023-01-11T11:56:51.423Z,97.61
2023-01-11T11:57:51.439Z,98.33
2023-01-11T11:58:51.401Z,98.22
2023-01-11T11:59:51.414Z,98.74
2023-01-11T12:00:51.402Z,98.43
2023-01-11T12:01:51.464Z,98.84
2023-01-11T12:02:51.356Z,98.53
2023-01-11T12:03:51.371Z,99.05
2023-01-11T12:04:51.388Z,98.43
2023-01-11T12:05:51.351Z,97.30
2023-01-11T12:06:51.312Z,98.22
2023-01-11T12:07:55.051Z,98.12
2023-01-11T12:08:51.298Z,98.63
2023-01-11T12:09:51.315Z,98.53
2023-01-11T12:10:51.301Z,98.74
2023-01-11T12:11:51.272Z,97.71
2023-01-11T12:12:51.263Z,97.30
2023-01-11T12:13:51.244Z,96.58
2023-01-11T12:14:51.222Z,96.68
2023-01-11T12:15:51.238Z,97.81
2023-01-11T12:16:51.281Z,96.06
2023-01-11T12:17:51.216Z,95.61
2023-01-11T12:18:51.177Z,96.12
2023-01-11T12:19:51.183Z,96.22
2023-01-11T12:20:51.167Z,96.64
2023-01-11T12:21:51.200Z,96.64
2023-01-11T12:22:51.158Z,95.92
2023-01-11T12:23:51.138Z,96.33
2023-01-11T12:24:51.116Z,96.22
2023-01-11T12:25:51.142Z,96.12
2023-01-11T12:26:51.157Z,96.33
2023-01-11T12:27:51.110Z,96.22
2023-01-11T12:28:51.081Z,96.73
2023-01-11T12:29:51.122Z,97.25
2023-01-11T12:30:51.109Z,97.87
2023-01-11T12:31:51.059Z,98.22
2023-01-11T12:32:51.050Z,98.63
2023-01-11T12:33:51.065Z,99.15
2023-01-11T12:34:51.005Z,99.66
2023-01-11T12:35:51.055Z,99.77
2023-01-11T12:36:50.998Z,99.87
2023-01-11T12:37:50.996Z,99.77
2023-01-11T12:38:50.998Z,99.56
2023-01-11T12:39:50.997Z,99.99
2023-01-11T12:40:50.940Z,99.99
2023-01-11T12:41:50.953Z,99.99
2023-01-11T12:42:50.928Z,99.99
2023-01-11T12:43:50.939Z,99.99
2023-01-11T12:44:50.943Z,99.99
2023-01-11T12:45:51.043Z,99.99
2023-01-11T12:46:50.882Z,99.99
2023-01-11T12:47:50.885Z,99.99
2023-01-11T12:48:50.856Z,99.99
2023-01-11T12:49:50.867Z,99.99
2023-01-11T12:50:50.847Z,99.99
2023-01-11T12:51:50.865Z,99.99
2023-01-11T12:52:50.803Z,99.66
2023-01-11T12:53:50.827Z,99.99
2023-01-11T12:54:50.794Z,99.99
2023-01-11T12:55:50.805Z,99.99
2023-01-11T12:56:50.774Z,99.99
2023-01-11T12:57:50.783Z,99.99
2023-01-11T12:58:50.767Z,99.99
2023-01-11T12:59:50.755Z,99.99
2023-01-11T13:00:50.725Z,99.99